createdAt,value
2019-03-31T00:00:13.623Z,15.90
2019-03-31T00:02:42.658Z,17.63
2019-03-31T00:05:10.572Z,17.60
2019-03-31T00:07:37.471Z,16.73
2019-03-31T00:10:04.927Z,16.70
2019-03-31T00:12:34.621Z,15.77
2019-03-31T00:15:01.635Z,15.80
2019-03-31T00:17:29.929Z,16.30
2019-03-31T00:19:56.915Z,16.00
2019-03-31T00:22:23.919Z,17.83
2019-03-31T00:24:53.403Z,17.27
2019-03-31T00:27:21.488Z,16.87
2019-03-31T00:29:48.482Z,16.23
2019-03-31T00:32:15.367Z,18.60
2019-03-31T00:34:42.299Z,17.33
2019-03-31T00:37:09.216Z,16.03
2019-03-31T00:39:36.104Z,17.70
2019-03-31T00:42:03.408Z,17.20
2019-03-31T00:44:30.416Z,17.70
2019-03-31T00:46:57.391Z,18.73
2019-03-31T00:49:24.285Z,18.63
2019-03-31T00:51:51.196Z,17.77
2019-03-31T00:54:18.085Z,16.40
2019-03-31T00:56:45.222Z,17.37
2019-03-31T00:59:12.128Z,15.60
2019-03-31T01:01:54.079Z,16.13
2019-03-31T01:04:23.503Z,16.90
2019-03-31T01:06:52.767Z,16.33
2019-03-31T01:09:21.256Z,15.80
2019-03-31T01:11:48.460Z,14.73
2019-03-31T01:14:15.544Z,14.00
2019-03-31T01:16:42.829Z,15.03
2019-03-31T01:19:10.359Z,12.70
2019-03-31T01:21:37.867Z,12.87
2019-03-31T01:24:05.851Z,13.30
2019-03-31T01:26:32.763Z,12.20
2019-03-31T01:29:00.131Z,11.77
2019-03-31T01:31:28.693Z,11.60
2019-03-31T01:33:55.770Z,10.73
2019-03-31T01:36:23.170Z,10.57
2019-03-31T01:38:50.239Z,11.80
2019-03-31T01:41:18.403Z,9.90
2019-03-31T01:43:45.290Z,10.63
2019-03-31T01:46:14.134Z,9.87
2019-03-31T01:48:41.536Z,10.67
2019-03-31T01:51:08.622Z,9.27
2019-03-31T01:53:35.511Z,10.10
2019-03-31T01:56:02.435Z,9.30
2019-03-31T01:58:29.323Z,10.40
2019-03-31T02:00:58.978Z,9.50
2019-03-31T02:03:25.989Z,9.50
2019-03-31T02:05:52.899Z,8.10
2019-03-31T02:08:19.908Z,8.80
2019-03-31T02:10:46.857Z,8.50
2019-03-31T02:13:13.846Z,8.33
2019-03-31T02:15:40.723Z,7.37
2019-03-31T02:18:07.971Z,7.50
2019-03-31T02:20:34.951Z,7.03
2019-03-31T02:23:02.036Z,8.00
2019-03-31T02:25:29.130Z,7.00
2019-03-31T02:27:56.023Z,6.43
2019-03-31T02:30:22.923Z,5.97
2019-03-31T02:32:50.012Z,5.37
2019-03-31T02:35:16.896Z,6.70
2019-03-31T02:37:43.788Z,6.00
2019-03-31T02:40:10.718Z,5.70
2019-03-31T02:42:37.753Z,5.40
2019-03-31T02:45:05.001Z,5.97
2019-03-31T02:47:31.917Z,6.10
2019-03-31T02:49:58.931Z,3.30
2019-03-31T02:52:26.019Z,3.57
2019-03-31T02:54:52.941Z,3.70
2019-03-31T02:57:20.699Z,3.50
2019-03-31T02:59:49.187Z,2.50
2019-03-31T03:02:16.508Z,2.10
2019-03-31T03:04:45.774Z,2.83
2019-03-31T03:07:13.932Z,2.33
2019-03-31T03:09:43.164Z,2.60
2019-03-31T03:12:10.573Z,2.13
2019-03-31T03:14:37.506Z,2.80
2019-03-31T03:17:04.575Z,2.53
2019-03-31T03:19:31.602Z,3.07
2019-03-31T03:21:58.505Z,2.20
2019-03-31T03:24:25.543Z,4.10
2019-03-31T03:26:52.542Z,1.80
2019-03-31T03:29:19.629Z,1.77
2019-03-31T03:31:46.969Z,1.30
2019-03-31T03:34:13.880Z,1.97
2019-03-31T03:36:43.510Z,2.40
2019-03-31T03:39:10.846Z,2.13
2019-03-31T03:41:38.418Z,2.00
2019-03-31T03:44:05.762Z,2.17
2019-03-31T03:46:34.481Z,2.50
2019-03-31T03:49:02.149Z,2.00
2019-03-31T03:51:30.284Z,3.00
2019-03-31T03:53:57.636Z,1.80
2019-03-31T03:56:28.847Z,2.07
2019-03-31T03:58:53.884Z,2.63
2019-03-31T04:01:23.291Z,2.70
2019-03-31T04:03:50.640Z,2.97
2019-03-31T04:06:17.999Z,2.20
2019-03-31T04:08:45.346Z,3.00
2019-03-31T04:11:13.834Z,1.97
2019-03-31T04:13:41.388Z,1.63
2019-03-31T04:16:08.335Z,2.17
2019-03-31T04:18:35.953Z,2.70
2019-03-31T04:21:03.356Z,1.40
2019-03-31T04:23:30.373Z,2.13
2019-03-31T04:25:58.159Z,2.30
2019-03-31T04:28:25.317Z,2.03
2019-03-31T04:30:52.559Z,2.73
2019-03-31T04:33:19.820Z,2.00
2019-03-31T04:35:47.587Z,2.90
2019-03-31T04:38:14.900Z,2.13
2019-03-31T04:40:42.080Z,1.90
2019-03-31T04:43:09.639Z,2.70
2019-03-31T04:45:37.408Z,2.40
2019-03-31T04:48:04.556Z,2.73
2019-03-31T04:50:32.235Z,1.73
2019-03-31T04:52:59.375Z,2.47
2019-03-31T04:55:26.275Z,3.73
2019-03-31T04:57:53.160Z,2.40
2019-03-31T05:00:20.146Z,3.07
2019-03-31T05:02:48.747Z,1.97
2019-03-31T05:05:16.764Z,3.20
2019-03-31T05:07:43.695Z,3.57
2019-03-31T05:10:10.903Z,2.00
2019-03-31T05:12:38.100Z,2.63
2019-03-31T05:15:05.378Z,2.30
2019-03-31T05:17:35.640Z,2.37
2019-03-31T05:20:01.706Z,2.77
2019-03-31T05:22:29.050Z,2.40
2019-03-31T05:24:55.940Z,2.97
2019-03-31T05:27:22.923Z,2.60
2019-03-31T05:29:50.242Z,2.80
2019-03-31T05:32:17.443Z,2.47
2019-03-31T05:34:44.328Z,2.13
2019-03-31T05:37:11.237Z,2.30
2019-03-31T05:39:38.439Z,2.73
2019-03-31T05:42:05.663Z,4.10
2019-03-31T05:44:32.691Z,2.97
2019-03-31T05:46:59.563Z,2.90
2019-03-31T05:49:26.471Z,2.63
2019-03-31T05:51:54.339Z,3.13
2019-03-31T05:54:21.399Z,3.57
2019-03-31T05:56:48.623Z,3.03
2019-03-31T05:59:15.631Z,3.37
2019-03-31T06:01:42.611Z,3.07
2019-03-31T06:04:09.503Z,3.13
2019-03-31T06:06:38.563Z,2.57
2019-03-31T06:09:05.564Z,4.63
2019-03-31T06:11:32.547Z,2.33
2019-03-31T06:14:00.325Z,3.10
2019-03-31T06:16:28.083Z,2.63
2019-03-31T06:18:55.349Z,3.63
2019-03-31T06:21:22.567Z,3.27
2019-03-31T06:23:49.850Z,2.87
2019-03-31T06:26:17.607Z,8.27
2019-03-31T06:28:45.903Z,2.10
2019-03-31T06:31:12.883Z,3.40
2019-03-31T06:33:40.490Z,3.03
2019-03-31T06:36:07.739Z,3.13
2019-03-31T06:38:34.619Z,2.30
2019-03-31T06:41:01.935Z,2.60
2019-03-31T06:43:29.299Z,2.17
2019-03-31T06:45:56.844Z,2.90
2019-03-31T06:48:24.511Z,2.73
2019-03-31T06:50:51.429Z,2.33
2019-03-31T06:53:19.016Z,1.37
2019-03-31T06:55:46.583Z,2.60
2019-03-31T06:58:13.900Z,2.80
2019-03-31T07:00:40.800Z,10.60
2019-03-31T07:03:07.791Z,2.97
2019-03-31T07:05:35.170Z,3.70
2019-03-31T07:08:02.436Z,2.07
2019-03-31T07:10:29.670Z,2.37
2019-03-31T07:12:59.760Z,2.70
2019-03-31T07:15:27.047Z,2.33
2019-03-31T07:17:54.303Z,3.00
2019-03-31T07:20:21.551Z,2.37
2019-03-31T07:22:49.111Z,2.47
2019-03-31T07:25:17.390Z,2.80
2019-03-31T07:27:46.292Z,1.70
2019-03-31T07:30:14.863Z,3.10
2019-03-31T07:32:42.141Z,2.00
2019-03-31T07:35:18.259Z,2.20
2019-03-31T07:37:47.018Z,2.90
2019-03-31T07:40:09.316Z,2.73
2019-03-31T07:42:36.663Z,2.23
2019-03-31T07:45:04.407Z,2.90
2019-03-31T07:47:32.280Z,1.90
2019-03-31T07:49:59.535Z,3.80
2019-03-31T07:52:26.799Z,2.00
2019-03-31T07:54:54.960Z,2.50
2019-03-31T07:57:22.219Z,2.00
2019-03-31T07:59:49.128Z,2.13
2019-03-31T08:02:16.718Z,2.33
2019-03-31T08:04:44.683Z,2.57
2019-03-31T08:07:11.967Z,1.80
2019-03-31T08:09:39.600Z,3.23
2019-03-31T08:12:06.487Z,2.33
2019-03-31T08:14:33.478Z,2.37
2019-03-31T08:17:00.354Z,2.00
2019-03-31T08:19:27.575Z,2.10
2019-03-31T08:21:54.455Z,2.70
2019-03-31T08:24:21.354Z,2.23
2019-03-31T08:26:48.335Z,1.43
2019-03-31T08:29:15.359Z,2.10
2019-03-31T08:31:42.228Z,1.80
2019-03-31T08:34:09.126Z,2.03
2019-03-31T08:36:36.343Z,1.57
2019-03-31T08:39:06.060Z,1.40
2019-03-31T08:41:33.143Z,3.07
2019-03-31T08:44:00.415Z,1.80
2019-03-31T08:46:27.318Z,1.40
2019-03-31T08:48:56.028Z,1.47
2019-03-31T08:51:22.950Z,1.73
2019-03-31T08:53:50.638Z,3.70
2019-03-31T08:56:17.567Z,1.80
2019-03-31T08:58:44.447Z,1.33
2019-03-31T09:01:14.020Z,1.43
2019-03-31T09:03:41.007Z,1.43
2019-03-31T09:06:07.919Z,1.43
2019-03-31T09:08:35.164Z,1.50
2019-03-31T09:11:02.180Z,2.20
2019-03-31T09:13:29.804Z,2.37
2019-03-31T09:15:58.887Z,2.80
2019-03-31T09:18:26.027Z,2.17
2019-03-31T09:20:53.403Z,1.63
2019-03-31T09:23:21.053Z,1.80
2019-03-31T09:25:47.930Z,2.40
2019-03-31T09:28:16.641Z,1.63
2019-03-31T09:30:43.611Z,1.83
2019-03-31T09:33:10.557Z,2.00
2019-03-31T09:35:37.408Z,1.77
2019-03-31T09:38:04.260Z,1.30
2019-03-31T09:40:31.125Z,1.80
2019-03-31T09:42:57.856Z,2.13
2019-03-31T09:45:25.178Z,1.70
2019-03-31T09:47:53.440Z,1.30
2019-03-31T09:50:20.833Z,1.67
2019-03-31T09:52:47.958Z,2.37
2019-03-31T09:55:15.996Z,1.57
2019-03-31T09:57:42.848Z,1.50
2019-03-31T10:00:11.250Z,1.57
2019-03-31T10:02:38.506Z,1.30
2019-03-31T10:05:06.119Z,1.20
2019-03-31T10:07:33.516Z,2.13
2019-03-31T10:10:00.468Z,1.40
2019-03-31T10:12:27.414Z,1.53
2019-03-31T10:14:54.456Z,1.90
2019-03-31T10:17:21.495Z,1.23
2019-03-31T10:19:48.385Z,1.50
2019-03-31T10:22:15.931Z,1.60
2019-03-31T10:24:42.915Z,2.30
2019-03-31T10:27:10.887Z,1.60
2019-03-31T10:29:37.884Z,1.83
2019-03-31T10:32:05.145Z,1.67
2019-03-31T10:34:33.410Z,1.57
2019-03-31T10:37:00.670Z,1.80
2019-03-31T10:39:28.011Z,1.80
2019-03-31T10:41:55.007Z,1.40
2019-03-31T10:44:22.004Z,1.63
2019-03-31T10:46:50.032Z,1.40
2019-03-31T10:49:17.020Z,1.30
2019-03-31T10:51:43.915Z,2.77
2019-03-31T10:54:10.815Z,1.37
2019-03-31T10:56:37.835Z,1.37
2019-03-31T10:59:04.717Z,1.40
2019-03-31T11:01:31.633Z,1.00
2019-03-31T11:03:58.535Z,1.70
2019-03-31T11:06:25.727Z,1.20
2019-03-31T11:08:52.724Z,1.20
2019-03-31T11:11:19.631Z,1.47
2019-03-31T11:13:46.639Z,1.20
2019-03-31T11:16:13.640Z,2.10
2019-03-31T11:18:40.639Z,1.03
2019-03-31T11:21:13.807Z,1.03
2019-03-31T11:23:41.139Z,1.67
2019-03-31T11:26:08.353Z,1.67
2019-03-31T11:28:35.670Z,1.80
2019-03-31T11:31:02.655Z,1.63
2019-03-31T11:33:30.032Z,2.60
2019-03-31T11:35:56.922Z,2.20
2019-03-31T11:38:24.516Z,3.27
2019-03-31T11:40:52.483Z,2.10
2019-03-31T11:43:19.375Z,1.10
2019-03-31T11:45:46.986Z,1.30
2019-03-31T11:48:15.258Z,1.33
2019-03-31T11:50:43.954Z,1.10
2019-03-31T11:53:10.859Z,1.50
2019-03-31T11:55:37.856Z,1.13
2019-03-31T11:58:04.855Z,1.77
2019-03-31T12:00:35.415Z,1.70
2019-03-31T12:03:03.691Z,1.43
2019-03-31T12:05:32.379Z,1.93
2019-03-31T12:08:00.245Z,1.50
2019-03-31T12:10:27.391Z,3.10
2019-03-31T12:12:54.957Z,1.90
2019-03-31T12:15:22.104Z,1.80
2019-03-31T12:17:49.358Z,2.17
2019-03-31T12:20:16.438Z,1.60
2019-03-31T12:22:43.722Z,1.23
2019-03-31T12:25:10.799Z,1.80
2019-03-31T12:27:38.109Z,0.97
2019-03-31T12:30:05.618Z,1.17
2019-03-31T12:32:32.911Z,1.63
2019-03-31T12:35:00.835Z,1.50
2019-03-31T12:37:41.767Z,1.53
2019-03-31T12:39:58.205Z,1.90
2019-03-31T12:42:25.459Z,2.03
2019-03-31T12:44:52.358Z,1.70
2019-03-31T12:47:19.963Z,1.60
2019-03-31T12:49:46.866Z,1.20
2019-03-31T12:52:14.468Z,1.60
2019-03-31T12:54:41.847Z,1.40
2019-03-31T12:57:08.747Z,1.00
2019-03-31T12:59:35.931Z,1.17
2019-03-31T13:02:03.500Z,1.23
2019-03-31T13:04:30.932Z,1.13
2019-03-31T13:06:58.386Z,1.00
2019-03-31T13:09:25.299Z,1.70
2019-03-31T13:11:52.388Z,1.90
2019-03-31T13:14:19.707Z,1.30
2019-03-31T13:16:47.627Z,1.53
2019-03-31T13:19:14.535Z,1.43
2019-03-31T13:21:41.432Z,1.27
2019-03-31T13:24:08.707Z,1.17
2019-03-31T13:26:35.880Z,1.03
2019-03-31T13:29:03.348Z,1.27
2019-03-31T13:31:30.594Z,1.20
2019-03-31T13:33:57.495Z,1.20
2019-03-31T13:36:25.515Z,1.33
2019-03-31T13:38:53.071Z,2.27
2019-03-31T13:41:19.967Z,1.17
2019-03-31T13:43:47.108Z,1.50
2019-03-31T13:46:15.343Z,1.20
2019-03-31T13:48:42.491Z,1.03
2019-03-31T13:51:09.772Z,1.20
2019-03-31T13:53:36.818Z,1.27
2019-03-31T13:56:04.045Z,2.43
2019-03-31T13:58:33.667Z,1.03
2019-03-31T14:01:01.055Z,1.10
2019-03-31T14:03:28.767Z,1.67
2019-03-31T14:05:56.021Z,1.40
2019-03-31T14:08:25.926Z,1.27
2019-03-31T14:10:52.062Z,1.70
2019-03-31T14:13:19.035Z,0.90
2019-03-31T14:15:46.318Z,1.47
2019-03-31T14:18:14.237Z,1.07
2019-03-31T14:20:42.195Z,1.30
2019-03-31T14:23:09.447Z,1.30
2019-03-31T14:25:36.699Z,1.00
2019-03-31T14:28:04.055Z,1.33
2019-03-31T14:30:31.277Z,1.07
2019-03-31T14:32:58.156Z,1.57
2019-03-31T14:35:25.931Z,1.43
2019-03-31T14:37:52.922Z,1.80
2019-03-31T14:40:21.399Z,1.43
2019-03-31T14:42:48.607Z,1.40
2019-03-31T14:45:28.445Z,1.83
2019-03-31T14:47:56.100Z,1.73
2019-03-31T14:50:30.583Z,1.53
2019-03-31T14:52:57.785Z,1.17
2019-03-31T14:55:25.331Z,1.00
2019-03-31T14:57:52.897Z,1.23
2019-03-31T15:00:20.267Z,1.00
2019-03-31T15:02:47.159Z,1.20
2019-03-31T15:05:14.751Z,0.87
2019-03-31T15:07:42.123Z,1.10
2019-03-31T15:10:09.664Z,1.00
2019-03-31T15:12:36.903Z,1.57
2019-03-31T15:15:04.614Z,1.70
2019-03-31T15:17:31.895Z,2.10
2019-03-31T15:19:59.282Z,1.33
2019-03-31T15:22:26.550Z,1.17
2019-03-31T15:24:54.402Z,1.47
2019-03-31T15:27:21.971Z,1.63
2019-03-31T15:29:49.536Z,1.50
2019-03-31T15:32:16.767Z,1.60
2019-03-31T15:34:44.947Z,1.80
2019-03-31T15:37:13.328Z,1.20
2019-03-31T15:39:40.576Z,0.90
2019-03-31T15:42:08.135Z,1.40
2019-03-31T15:44:35.062Z,1.30
2019-03-31T15:47:02.080Z,1.23
2019-03-31T15:49:29.018Z,1.90
2019-03-31T15:51:56.532Z,1.53
2019-03-31T15:54:23.450Z,1.20
2019-03-31T15:56:50.439Z,1.53
2019-03-31T15:59:17.350Z,2.87
2019-03-31T16:01:44.664Z,1.30
2019-03-31T16:04:13.082Z,2.10
2019-03-31T16:06:40.310Z,1.53
2019-03-31T16:09:07.675Z,1.63
2019-03-31T16:11:36.219Z,1.47
2019-03-31T16:14:04.051Z,1.80
2019-03-31T16:16:31.226Z,1.10
2019-03-31T16:18:57.880Z,1.20
2019-03-31T16:21:24.538Z,1.30
2019-03-31T16:23:53.364Z,2.47
2019-03-31T16:26:20.008Z,1.97
2019-03-31T16:28:46.624Z,1.80
2019-03-31T16:31:15.222Z,1.70
2019-03-31T16:33:42.280Z,1.67
2019-03-31T16:36:09.729Z,1.73
2019-03-31T16:38:36.675Z,1.50
2019-03-31T16:41:03.721Z,1.37
2019-03-31T16:43:30.516Z,1.20
2019-03-31T16:45:57.127Z,1.60
2019-03-31T16:48:23.764Z,1.50
2019-03-31T16:50:50.523Z,2.33
2019-03-31T16:53:17.147Z,1.40
2019-03-31T16:55:44.643Z,1.67
2019-03-31T16:58:11.635Z,1.77
2019-03-31T17:00:38.260Z,1.20
2019-03-31T17:03:04.983Z,1.60
2019-03-31T17:05:31.651Z,1.57
2019-03-31T17:07:58.267Z,1.67
2019-03-31T17:10:25.019Z,1.70
2019-03-31T17:12:51.669Z,1.10
2019-03-31T17:15:18.265Z,1.50
2019-03-31T17:17:44.890Z,1.43
2019-03-31T17:20:11.826Z,1.27
2019-03-31T17:22:38.806Z,0.90
2019-03-31T17:25:05.610Z,1.20
2019-03-31T17:27:32.239Z,1.80
2019-03-31T17:29:58.834Z,1.17
2019-03-31T17:32:25.454Z,1.10
2019-03-31T17:34:52.095Z,0.87
2019-03-31T17:37:18.698Z,1.37
2019-03-31T17:39:45.317Z,1.10
2019-03-31T17:42:12.427Z,1.53
2019-03-31T17:44:40.131Z,0.90
2019-03-31T17:47:06.747Z,1.63
2019-03-31T17:49:33.371Z,1.40
2019-03-31T17:52:01.489Z,1.43
2019-03-31T17:54:28.387Z,1.10
2019-03-31T17:56:55.449Z,1.40
2019-03-31T17:59:22.671Z,0.90
2019-03-31T18:01:49.647Z,0.80
2019-03-31T18:04:18.287Z,1.00
2019-03-31T18:06:45.480Z,1.37
2019-03-31T18:09:12.811Z,1.73
2019-03-31T18:11:39.759Z,1.97
2019-03-31T18:14:06.996Z,1.50
2019-03-31T18:16:33.875Z,2.43
2019-03-31T18:19:00.503Z,1.67
2019-03-31T18:21:27.483Z,1.53
2019-03-31T18:23:54.156Z,1.33
2019-03-31T18:26:22.640Z,1.53
2019-03-31T18:28:50.421Z,1.80
2019-03-31T18:31:17.018Z,1.00
2019-03-31T18:33:44.011Z,1.23
2019-03-31T18:36:10.651Z,2.07
2019-03-31T18:38:37.647Z,1.37
2019-03-31T18:41:04.637Z,1.40
2019-03-31T18:43:31.368Z,2.00
2019-03-31T18:45:57.985Z,2.13
2019-03-31T18:48:24.895Z,1.33
2019-03-31T18:50:52.579Z,1.33
2019-03-31T18:53:31.927Z,2.03
2019-03-31T18:56:16.755Z,1.47
2019-03-31T18:58:58.689Z,1.67
2019-03-31T19:01:35.347Z,1.30
2019-03-31T19:04:25.539Z,1.40
2019-03-31T19:07:16.997Z,1.50
2019-03-31T19:09:57.739Z,1.13
2019-03-31T19:12:42.291Z,1.37
2019-03-31T19:15:35.685Z,2.13
2019-03-31T19:18:28.536Z,1.43
2019-03-31T19:21:10.795Z,2.50
2019-03-31T19:23:43.072Z,1.73
2019-03-31T19:26:48.097Z,1.53
2019-03-31T19:29:41.540Z,2.17
2019-03-31T19:32:22.779Z,2.10
2019-03-31T19:35:08.940Z,2.10
2019-03-31T19:37:53.907Z,2.00
2019-03-31T19:40:41.314Z,2.30
2019-03-31T19:43:25.223Z,1.80
2019-03-31T19:46:14.686Z,1.80
2019-03-31T19:48:52.267Z,1.90
2019-03-31T19:51:41.704Z,1.93
2019-03-31T19:54:39.920Z,2.10
2019-03-31T19:57:18.024Z,1.70
2019-03-31T20:00:04.271Z,1.53
2019-03-31T20:02:56.352Z,1.77
2019-03-31T20:05:37.486Z,2.20
2019-03-31T20:08:29.894Z,2.10
2019-03-31T20:11:25.382Z,2.80
2019-03-31T20:14:08.522Z,2.87
2019-03-31T20:17:00.818Z,2.20
2019-03-31T20:19:43.255Z,2.10
2019-03-31T20:22:28.456Z,2.93
2019-03-31T20:25:11.169Z,2.53
2019-03-31T20:27:59.428Z,2.57
2019-03-31T20:30:39.539Z,2.23
2019-03-31T20:33:19.211Z,2.40
2019-03-31T20:36:23.736Z,2.37
2019-03-31T20:39:06.957Z,1.90
2019-03-31T20:41:53.635Z,2.00
2019-03-31T20:44:20.627Z,2.23
2019-03-31T20:46:47.349Z,1.90
2019-03-31T20:49:14.100Z,2.33
2019-03-31T20:51:41.026Z,1.70
2019-03-31T20:54:07.662Z,3.10
2019-03-31T20:56:35.847Z,2.10
2019-03-31T20:59:03.208Z,2.33
2019-03-31T21:01:30.251Z,1.50
2019-03-31T21:03:57.915Z,2.00
2019-03-31T21:06:24.527Z,2.03
2019-03-31T21:08:51.167Z,2.73
2019-03-31T21:11:18.545Z,2.30
2019-03-31T21:13:46.401Z,2.10
2019-03-31T21:16:13.011Z,2.00
2019-03-31T21:18:39.660Z,1.57
2019-03-31T21:21:07.287Z,1.80
2019-03-31T21:23:33.939Z,1.90
2019-03-31T21:26:00.554Z,1.80
2019-03-31T21:28:27.191Z,1.10
2019-03-31T21:30:53.851Z,1.67
2019-03-31T21:33:20.523Z,1.90
2019-03-31T21:35:48.626Z,1.47
2019-03-31T21:38:15.588Z,2.00
2019-03-31T21:40:42.318Z,1.67
2019-03-31T21:43:08.918Z,1.60
2019-03-31T21:45:35.887Z,1.00
2019-03-31T21:48:03.135Z,2.17
2019-03-31T21:50:29.871Z,1.50
2019-03-31T21:52:56.590Z,1.87
2019-03-31T21:55:23.228Z,1.07
2019-03-31T21:57:50.719Z,1.40
2019-03-31T22:00:19.139Z,1.37
2019-03-31T22:02:47.680Z,1.40
2019-03-31T22:05:14.299Z,1.43
2019-03-31T22:07:41.452Z,2.23
2019-03-31T22:10:08.806Z,1.70
2019-03-31T22:12:35.871Z,1.80
2019-03-31T22:15:03.000Z,1.07
2019-03-31T22:17:31.071Z,1.30
2019-03-31T22:19:58.324Z,3.30
2019-03-31T22:22:25.574Z,1.60
2019-03-31T22:24:52.723Z,2.40
2019-03-31T22:27:19.587Z,1.77
2019-03-31T22:29:47.739Z,1.80
2019-03-31T22:32:14.887Z,1.60
2019-03-31T22:34:41.939Z,2.15
2019-03-31T22:37:08.670Z,1.83
2019-03-31T22:39:35.943Z,2.10
2019-03-31T22:42:03.907Z,2.17
2019-03-31T22:44:31.250Z,2.10
2019-03-31T22:46:58.195Z,1.90
2019-03-31T22:49:25.266Z,2.20
2019-03-31T22:51:56.325Z,2.10
2019-03-31T22:54:21.795Z,4.53
2019-03-31T22:56:48.875Z,1.63
2019-03-31T22:59:15.596Z,1.80
2019-03-31T23:01:42.557Z,2.35
2019-03-31T23:04:09.295Z,2.00
2019-03-31T23:06:36.133Z,1.90
2019-03-31T23:09:04.770Z,2.10
2019-03-31T23:11:31.583Z,2.00
2019-03-31T23:13:58.203Z,1.80
2019-03-31T23:16:24.947Z,2.47
2019-03-31T23:18:51.555Z,1.80
2019-03-31T23:21:19.227Z,1.80
2019-03-31T23:23:46.538Z,2.65
2019-03-31T23:26:13.271Z,1.50
2019-03-31T23:28:46.716Z,1.53
2019-03-31T23:31:13.958Z,1.83
2019-03-31T23:33:40.899Z,1.03
2019-03-31T23:36:08.255Z,1.50
2019-03-31T23:38:34.880Z,1.60
2019-03-31T23:41:01.587Z,1.70
2019-03-31T23:43:28.474Z,1.90
2019-03-31T23:45:55.523Z,1.50
2019-03-31T23:48:22.776Z,1.50
2019-03-31T23:50:49.826Z,1.47
2019-03-31T23:53:16.536Z,2.57
2019-03-31T23:55:43.507Z,1.23
2019-03-31T23:58:10.119Z,1.70
